Marengo, Ohio
Current Conditions -  °F | °C
As of 2:16 AM on Friday 19 Dec 2014 (Local Time) from K4I3 Reporting Station
Haze Haze  
Wind Chill: 21°   Ceiling: 1700
Heat Index: 27°   Visibility: 5mi
Dew Point: 25°   Wind: 5mph
Humidity: 93%   Direction: 280°W
Pressure: 30.18"   Gusts: NA
Location:  40.4°N, 82.81°W
Report Text: K4I3 190716Z AUTO 28004KT 5SM BR SCT008 OVC017 M03/M04 A3018 RMK AO2
Loading
Personal Weather Stations






























Interactive Weather Map New forecast layout! Learn more

10-Day Weather Forecast

Advertisements
Track Severe Weather on mobile